sensor_id;sensor_type;location;lat;lon;timestamp;P1;durP1;ratioP1;P2;durP2;ratioP2
35114;SDS011;21292;52.416;13.046;2023-02-01T00:01:25;26.90;;;4.60;;
35114;SDS011;21292;52.416;13.046;2023-02-01T00:03:53;24.20;;;5.05;;
35114;SDS011;21292;52.416;13.046;2023-02-01T00:06:21;24.42;;;4.97;;
35114;SDS011;21292;52.416;13.046;2023-02-01T00:08:51;23.70;;;4.80;;
35114;SDS011;21292;52.416;13.046;2023-02-01T00:11:20;18.15;;;3.60;;
35114;SDS011;21292;52.416;13.046;2023-02-01T00:13:52;19.23;;;4.95;;
35114;SDS011;21292;52.416;13.046;2023-02-01T00:16:20;22.90;;;4.40;;
35114;SDS011;21292;52.416;13.046;2023-02-01T00:18:51;29.52;;;3.40;;
35114;SDS011;21292;52.416;13.046;2023-02-01T00:21:19;30.27;;;4.75;;
35114;SDS011;21292;52.416;13.046;2023-02-01T00:23:48;19.40;;;4.53;;
35114;SDS011;21292;52.416;13.046;2023-02-01T00:26:18;26.30;;;5.00;;
35114;SDS011;21292;52.416;13.046;2023-02-01T00:28:48;24.98;;;4.25;;
35114;SDS011;21292;52.416;13.046;2023-02-01T00:31:18;17.67;;;4.65;;
35114;SDS011;21292;52.416;13.046;2023-02-01T00:33:46;20.20;;;3.38;;
35114;SDS011;21292;52.416;13.046;2023-02-01T00:36:15;21.58;;;4.35;;
35114;SDS011;21292;52.416;13.046;2023-02-01T00:38:43;27.85;;;4.70;;
35114;SDS011;21292;52.416;13.046;2023-02-01T00:41:12;23.52;;;3.92;;
35114;SDS011;21292;52.416;13.046;2023-02-01T00:43:43;26.80;;;5.03;;
35114;SDS011;21292;52.416;13.046;2023-02-01T00:46:13;23.35;;;3.60;;
35114;SDS011;21292;52.416;13.046;2023-02-01T00:48:43;31.05;;;6.55;;
35114;SDS011;21292;52.416;13.046;2023-02-01T00:51:13;24.58;;;4.32;;
35114;SDS011;21292;52.416;13.046;2023-02-01T00:53:42;19.85;;;3.85;;
35114;SDS011;21292;52.416;13.046;2023-02-01T00:56:10;23.33;;;3.88;;
35114;SDS011;21292;52.416;13.046;2023-02-01T00:58:39;21.13;;;4.30;;
35114;SDS011;21292;52.416;13.046;2023-02-01T01:01:12;27.77;;;4.07;;
35114;SDS011;21292;52.416;13.046;2023-02-01T01:03:43;23.67;;;4.72;;
35114;SDS011;21292;52.416;13.046;2023-02-01T01:06:13;28.65;;;6.50;;
35114;SDS011;21292;52.416;13.046;2023-02-01T01:08:42;20.77;;;3.90;;
35114;SDS011;21292;52.416;13.046;2023-02-01T01:11:13;20.77;;;5.00;;
35114;SDS011;21292;52.416;13.046;2023-02-01T01:13:42;20.20;;;3.88;;
35114;SDS011;21292;52.416;13.046;2023-02-01T01:16:10;22.55;;;4.22;;
35114;SDS011;21292;52.416;13.046;2023-02-01T01:18:39;18.88;;;4.22;;
35114;SDS011;21292;52.416;13.046;2023-02-01T01:21:11;20.13;;;3.67;;
35114;SDS011;21292;52.416;13.046;2023-02-01T01:23:42;22.08;;;4.30;;
35114;SDS011;21292;52.416;13.046;2023-02-01T01:26:12;22.92;;;4.38;;
35114;SDS011;21292;52.416;13.046;2023-02-01T01:28:42;18.90;;;4.47;;
35114;SDS011;21292;52.416;13.046;2023-02-01T01:31:10;23.88;;;4.57;;
35114;SDS011;21292;52.416;13.046;2023-02-01T01:33:39;23.30;;;4.30;;
35114;SDS011;21292;52.416;13.046;2023-02-01T01:36:08;21.63;;;4.10;;
35114;SDS011;21292;52.416;13.046;2023-02-01T01:38:39;18.65;;;3.72;;
35114;SDS011;21292;52.416;13.046;2023-02-01T01:41:09;16.80;;;3.33;;
35114;SDS011;21292;52.416;13.046;2023-02-01T01:43:46;28.27;;;5.03;;
35114;SDS011;21292;52.416;13.046;2023-02-01T01:46:22;24.50;;;4.32;;
35114;SDS011;21292;52.416;13.046;2023-02-01T01:48:53;29.00;;;4.20;;
35114;SDS011;21292;52.416;13.046;2023-02-01T01:51:27;22.40;;;4.68;;
35114;SDS011;21292;52.416;13.046;2023-02-01T01:54:01;21.33;;;3.25;;
35114;SDS011;21292;52.416;13.046;2023-02-01T01:56:30;31.67;;;3.90;;
35114;SDS011;21292;52.416;13.046;2023-02-01T01:58:59;21.67;;;4.13;;
35114;SDS011;21292;52.416;13.046;2023-02-01T02:01:27;25.40;;;4.20;;
35114;SDS011;21292;52.416;13.046;2023-02-01T02:03:55;18.20;;;3.90;;
35114;SDS011;21292;52.416;13.046;2023-02-01T02:06:27;24.02;;;3.80;;
35114;SDS011;21292;52.416;13.046;2023-02-01T02:09:03;25.30;;;4.40;;
35114;SDS011;21292;52.416;13.046;2023-02-01T02:11:32;24.00;;;3.40;;
35114;SDS011;21292;52.416;13.046;2023-02-01T02:14:02;28.63;;;6.65;;
35114;SDS011;21292;52.416;13.046;2023-02-01T02:22:22;22.15;;;4.28;;
35114;SDS011;21292;52.416;13.046;2023-02-01T02:28:37;23.65;;;4.68;;
35114;SDS011;21292;52.416;13.046;2023-02-01T02:31:30;22.55;;;4.72;;
35114;SDS011;21292;52.416;13.046;2023-02-01T02:34:12;23.45;;;3.72;;
35114;SDS011;21292;52.416;13.046;2023-02-01T02:36:49;16.60;;;4.03;;
35114;SDS011;21292;52.416;13.046;2023-02-01T02:39:26;21.90;;;3.63;;
35114;SDS011;21292;52.416;13.046;2023-02-01T02:42:02;19.38;;;4.60;;
35114;SDS011;21292;52.416;13.046;2023-02-01T02:44:56;21.08;;;4.18;;
35114;SDS011;21292;52.416;13.046;2023-02-01T02:47:45;23.00;;;4.93;;
35114;SDS011;21292;52.416;13.046;2023-02-01T02:50:22;21.50;;;4.45;;
35114;SDS011;21292;52.416;13.046;2023-02-01T02:53:11;29.30;;;5.93;;
35114;SDS011;21292;52.416;13.046;2023-02-01T02:55:59;21.77;;;3.85;;
35114;SDS011;21292;52.416;13.046;2023-02-01T02:58:45;18.17;;;3.55;;
35114;SDS011;21292;52.416;13.046;2023-02-01T03:01:34;22.65;;;4.75;;
35114;SDS011;21292;52.416;13.046;2023-02-01T03:04:19;18.50;;;3.92;;
35114;SDS011;21292;52.416;13.046;2023-02-01T03:06:49;30.52;;;5.18;;
35114;SDS011;21292;52.416;13.046;2023-02-01T03:09:18;23.75;;;4.10;;
35114;SDS011;21292;52.416;13.046;2023-02-01T03:11:52;28.88;;;5.55;;
35114;SDS011;21292;52.416;13.046;2023-02-01T03:14:43;30.85;;;5.15;;
35114;SDS011;21292;52.416;13.046;2023-02-01T03:17:14;22.35;;;4.78;;
35114;SDS011;21292;52.416;13.046;2023-02-01T03:19:46;34.55;;;4.70;;
35114;SDS011;21292;52.416;13.046;2023-02-01T03:22:19;28.40;;;4.22;;
35114;SDS011;21292;52.416;13.046;2023-02-01T03:24:50;26.77;;;3.63;;
35114;SDS011;21292;52.416;13.046;2023-02-01T03:27:21;20.50;;;4.40;;
35114;SDS011;21292;52.416;13.046;2023-02-01T03:29:52;23.80;;;3.72;;
35114;SDS011;21292;52.416;13.046;2023-02-01T03:32:26;22.73;;;3.83;;
35114;SDS011;21292;52.416;13.046;2023-02-01T03:34:54;32.38;;;4.97;;
35114;SDS011;21292;52.416;13.046;2023-02-01T03:37:26;23.60;;;5.65;;
35114;SDS011;21292;52.416;13.046;2023-02-01T03:39:57;23.38;;;4.85;;
35114;SDS011;21292;52.416;13.046;2023-02-01T03:42:28;22.83;;;4.35;;
35114;SDS011;21292;52.416;13.046;2023-02-01T03:45:00;29.40;;;4.90;;
35114;SDS011;21292;52.416;13.046;2023-02-01T03:47:33;27.23;;;5.15;;
35114;SDS011;21292;52.416;13.046;2023-02-01T03:50:04;23.60;;;4.90;;
35114;SDS011;21292;52.416;13.046;2023-02-01T03:52:37;24.80;;;4.85;;
35114;SDS011;21292;52.416;13.046;2023-02-01T03:55:08;26.70;;;5.75;;
35114;SDS011;21292;52.416;13.046;2023-02-01T03:57:40;21.25;;;4.65;;
35114;SDS011;21292;52.416;13.046;2023-02-01T04:00:15;27.60;;;5.00;;
35114;SDS011;21292;52.416;13.046;2023-02-01T04:02:45;29.38;;;4.38;;
35114;SDS011;21292;52.416;13.046;2023-02-01T04:05:15;23.95;;;5.05;;
35114;SDS011;21292;52.416;13.046;2023-02-01T04:07:44;32.50;;;5.07;;
35114;SDS011;21292;52.416;13.046;2023-02-01T04:10:15;18.58;;;3.65;;
35114;SDS011;21292;52.416;13.046;2023-02-01T04:12:45;21.88;;;4.32;;
35114;SDS011;21292;52.416;13.046;2023-02-01T04:15:15;27.38;;;4.57;;
35114;SDS011;21292;52.416;13.046;2023-02-01T04:17:45;29.88;;;4.50;;
35114;SDS011;21292;52.416;13.046;2023-02-01T04:20:13;24.67;;;4.35;;
35114;SDS011;21292;52.416;13.046;2023-02-01T04:22:42;28.02;;;4.13;;
35114;SDS011;21292;52.416;13.046;2023-02-01T04:25:11;27.95;;;4.38;;
35114;SDS011;21292;52.416;13.046;2023-02-01T04:27:40;32.03;;;5.20;;
35114;SDS011;21292;52.416;13.046;2023-02-01T04:30:08;31.08;;;6.07;;
35114;SDS011;21292;52.416;13.046;2023-02-01T04:32:38;19.60;;;5.45;;
35114;SDS011;21292;52.416;13.046;2023-02-01T04:35:06;21.88;;;4.05;;
35114;SDS011;21292;52.416;13.046;2023-02-01T04:37:36;24.90;;;5.05;;
35114;SDS011;21292;52.416;13.046;2023-02-01T04:40:06;34.65;;;5.15;;
35114;SDS011;21292;52.416;13.046;2023-02-01T04:42:36;24.92;;;4.72;;
35114;SDS011;21292;52.416;13.046;2023-02-01T04:45:06;20.58;;;5.28;;
35114;SDS011;21292;52.416;13.046;2023-02-01T04:47:35;28.27;;;4.43;;
35114;SDS011;21292;52.416;13.046;2023-02-01T04:50:04;21.80;;;6.32;;
35114;SDS011;21292;52.416;13.046;2023-02-01T04:52:34;33.72;;;7.72;;
35114;SDS011;21292;52.416;13.046;2023-02-01T04:55:03;34.88;;;4.70;;
35114;SDS011;21292;52.416;13.046;2023-02-01T04:57:32;26.83;;;4.65;;
35114;SDS011;21292;52.416;13.046;2023-02-01T05:00:01;23.52;;;4.53;;
35114;SDS011;21292;52.416;13.046;2023-02-01T05:02:31;20.00;;;4.47;;
35114;SDS011;21292;52.416;13.046;2023-02-01T05:04:59;28.83;;;5.22;;
35114;SDS011;21292;52.416;13.046;2023-02-01T05:07:27;23.50;;;4.07;;
35114;SDS011;21292;52.416;13.046;2023-02-01T05:09:57;25.58;;;4.70;;
35114;SDS011;21292;52.416;13.046;2023-02-01T05:12:25;27.67;;;4.78;;
35114;SDS011;21292;52.416;13.046;2023-02-01T05:15:09;21.98;;;4.30;;
35114;SDS011;21292;52.416;13.046;2023-02-01T05:17:38;31.33;;;5.32;;
35114;SDS011;21292;52.416;13.046;2023-02-01T05:20:07;25.85;;;4.88;;
35114;SDS011;21292;52.416;13.046;2023-02-01T05:22:36;27.33;;;6.15;;
35114;SDS011;21292;52.416;13.046;2023-02-01T05:25:05;25.63;;;5.30;;
35114;SDS011;21292;52.416;13.046;2023-02-01T05:27:34;23.13;;;5.07;;
35114;SDS011;21292;52.416;13.046;2023-02-01T05:30:03;25.38;;;4.90;;
35114;SDS011;21292;52.416;13.046;2023-02-01T05:32:36;29.27;;;5.20;;
35114;SDS011;21292;52.416;13.046;2023-02-01T05:35:05;22.67;;;4.82;;
35114;SDS011;21292;52.416;13.046;2023-02-01T05:37:34;21.77;;;4.05;;
35114;SDS011;21292;52.416;13.046;2023-02-01T05:40:02;23.23;;;4.68;;
35114;SDS011;21292;52.416;13.046;2023-02-01T05:42:31;16.60;;;3.55;;
35114;SDS011;21292;52.416;13.046;2023-02-01T05:44:59;27.23;;;5.13;;
35114;SDS011;21292;52.416;13.046;2023-02-01T05:47:27;22.35;;;4.93;;
35114;SDS011;21292;52.416;13.046;2023-02-01T05:49:57;43.05;;;5.72;;
35114;SDS011;21292;52.416;13.046;2023-02-01T05:52:25;30.15;;;5.65;;
35114;SDS011;21292;52.416;13.046;2023-02-01T05:54:53;33.63;;;6.00;;
35114;SDS011;21292;52.416;13.046;2023-02-01T05:57:21;33.47;;;4.70;;
35114;SDS011;21292;52.416;13.046;2023-02-01T05:59:49;21.15;;;4.68;;
35114;SDS011;21292;52.416;13.046;2023-02-01T06:02:17;22.90;;;4.05;;
35114;SDS011;21292;52.416;13.046;2023-02-01T06:04:47;38.65;;;6.93;;
35114;SDS011;21292;52.416;13.046;2023-02-01T06:07:17;27.13;;;5.13;;
35114;SDS011;21292;52.416;13.046;2023-02-01T06:09:47;26.83;;;5.95;;
35114;SDS011;21292;52.416;13.046;2023-02-01T06:12:15;26.38;;;5.03;;
35114;SDS011;21292;52.416;13.046;2023-02-01T06:14:43;30.67;;;5.95;;
35114;SDS011;21292;52.416;13.046;2023-02-01T06:17:13;21.30;;;4.22;;
35114;SDS011;21292;52.416;13.046;2023-02-01T06:19:41;31.98;;;5.13;;
35114;SDS011;21292;52.416;13.046;2023-02-01T06:22:10;21.77;;;4.57;;
35114;SDS011;21292;52.416;13.046;2023-02-01T06:24:40;23.20;;;4.55;;
35114;SDS011;21292;52.416;13.046;2023-02-01T06:27:08;23.50;;;5.50;;
35114;SDS011;21292;52.416;13.046;2023-02-01T06:29:37;27.00;;;5.22;;
35114;SDS011;21292;52.416;13.046;2023-02-01T06:32:06;25.23;;;4.53;;
35114;SDS011;21292;52.416;13.046;2023-02-01T06:34:34;17.33;;;4.40;;
35114;SDS011;21292;52.416;13.046;2023-02-01T06:37:03;22.63;;;4.32;;
35114;SDS011;21292;52.416;13.046;2023-02-01T06:39:31;17.67;;;5.00;;
35114;SDS011;21292;52.416;13.046;2023-02-01T06:42:02;28.77;;;4.20;;
35114;SDS011;21292;52.416;13.046;2023-02-01T06:44:30;24.20;;;4.85;;
35114;SDS011;21292;52.416;13.046;2023-02-01T06:46:59;24.67;;;5.25;;
35114;SDS011;21292;52.416;13.046;2023-02-01T06:49:27;31.52;;;5.10;;
35114;SDS011;21292;52.416;13.046;2023-02-01T06:51:55;18.40;;;4.78;;
35114;SDS011;21292;52.416;13.046;2023-02-01T06:54:26;23.58;;;4.72;;
35114;SDS011;21292;52.416;13.046;2023-02-01T06:56:55;26.00;;;5.18;;
35114;SDS011;21292;52.416;13.046;2023-02-01T06:59:24;18.17;;;3.67;;
35114;SDS011;21292;52.416;13.046;2023-02-01T07:01:53;21.63;;;3.97;;
35114;SDS011;21292;52.416;13.046;2023-02-01T07:04:21;16.20;;;4.28;;
35114;SDS011;21292;52.416;13.046;2023-02-01T07:06:50;20.42;;;4.60;;
35114;SDS011;21292;52.416;13.046;2023-02-01T07:09:18;22.95;;;5.70;;
35114;SDS011;21292;52.416;13.046;2023-02-01T07:11:46;17.38;;;4.30;;
35114;SDS011;21292;52.416;13.046;2023-02-01T07:14:16;24.73;;;5.47;;
35114;SDS011;21292;52.416;13.046;2023-02-01T07:16:45;24.10;;;5.25;;
35114;SDS011;21292;52.416;13.046;2023-02-01T07:19:14;26.90;;;6.13;;
35114;SDS011;21292;52.416;13.046;2023-02-01T07:21:42;21.77;;;4.72;;
35114;SDS011;21292;52.416;13.046;2023-02-01T07:24:10;23.25;;;4.90;;
35114;SDS011;21292;52.416;13.046;2023-02-01T07:26:39;18.45;;;5.18;;
35114;SDS011;21292;52.416;13.046;2023-02-01T07:29:08;17.33;;;5.10;;
35114;SDS011;21292;52.416;13.046;2023-02-01T07:31:36;20.95;;;4.50;;
35114;SDS011;21292;52.416;13.046;2023-02-01T07:34:06;25.38;;;5.82;;
35114;SDS011;21292;52.416;13.046;2023-02-01T07:36:34;26.00;;;4.97;;
35114;SDS011;21292;52.416;13.046;2023-02-01T07:39:03;20.92;;;5.10;;
35114;SDS011;21292;52.416;13.046;2023-02-01T07:41:33;22.00;;;5.47;;
35114;SDS011;21292;52.416;13.046;2023-02-01T07:44:01;28.98;;;6.80;;
35114;SDS011;21292;52.416;13.046;2023-02-01T07:46:29;23.02;;;4.80;;
35114;SDS011;21292;52.416;13.046;2023-02-01T07:48:57;19.98;;;6.75;;
35114;SDS011;21292;52.416;13.046;2023-02-01T07:51:27;19.55;;;4.88;;
35114;SDS011;21292;52.416;13.046;2023-02-01T07:53:55;22.17;;;6.00;;
35114;SDS011;21292;52.416;13.046;2023-02-01T07:56:24;16.40;;;4.55;;
35114;SDS011;21292;52.416;13.046;2023-02-01T07:58:53;23.42;;;5.60;;
35114;SDS011;21292;52.416;13.046;2023-02-01T08:01:23;20.80;;;6.78;;
35114;SDS011;21292;52.416;13.046;2023-02-01T08:03:52;19.65;;;5.32;;
35114;SDS011;21292;52.416;13.046;2023-02-01T08:06:21;21.80;;;6.00;;
35114;SDS011;21292;52.416;13.046;2023-02-01T08:08:53;23.70;;;5.05;;
35114;SDS011;21292;52.416;13.046;2023-02-01T08:11:22;23.08;;;5.50;;
35114;SDS011;21292;52.416;13.046;2023-02-01T08:13:51;22.25;;;5.55;;
35114;SDS011;21292;52.416;13.046;2023-02-01T08:16:21;26.80;;;6.53;;
35114;SDS011;21292;52.416;13.046;2023-02-01T08:18:51;18.08;;;5.50;;
35114;SDS011;21292;52.416;13.046;2023-02-01T08:21:21;17.00;;;6.30;;
35114;SDS011;21292;52.416;13.046;2023-02-01T08:23:50;29.50;;;6.18;;
35114;SDS011;21292;52.416;13.046;2023-02-01T08:26:21;21.17;;;5.88;;
35114;SDS011;21292;52.416;13.046;2023-02-01T08:28:51;16.13;;;4.90;;
35114;SDS011;21292;52.416;13.046;2023-02-01T08:31:22;15.03;;;4.40;;
35114;SDS011;21292;52.416;13.046;2023-02-01T08:33:52;17.85;;;4.03;;
35114;SDS011;21292;52.416;13.046;2023-02-01T08:36:22;11.77;;;4.20;;
35114;SDS011;21292;52.416;13.046;2023-02-01T08:38:53;16.05;;;4.20;;
35114;SDS011;21292;52.416;13.046;2023-02-01T08:41:22;7.85;;;3.90;;
35114;SDS011;21292;52.416;13.046;2023-02-01T08:43:53;10.95;;;3.42;;
35114;SDS011;21292;52.416;13.046;2023-02-01T08:46:21;11.73;;;3.72;;
35114;SDS011;21292;52.416;13.046;2023-02-01T08:48:50;6.88;;;3.22;;
35114;SDS011;21292;52.416;13.046;2023-02-01T08:51:20;8.32;;;3.47;;
35114;SDS011;21292;52.416;13.046;2023-02-01T08:53:50;8.20;;;3.40;;
35114;SDS011;21292;52.416;13.046;2023-02-01T08:56:20;8.13;;;3.00;;
35114;SDS011;21292;52.416;13.046;2023-02-01T08:58:48;8.43;;;3.40;;
35114;SDS011;21292;52.416;13.046;2023-02-01T09:01:18;6.50;;;2.30;;
35114;SDS011;21292;52.416;13.046;2023-02-01T09:03:47;9.98;;;3.05;;
35114;SDS011;21292;52.416;13.046;2023-02-01T09:06:15;4.45;;;2.92;;
35114;SDS011;21292;52.416;13.046;2023-02-01T09:08:43;8.77;;;3.22;;
35114;SDS011;21292;52.416;13.046;2023-02-01T09:11:13;8.30;;;2.72;;
35114;SDS011;21292;52.416;13.046;2023-02-01T09:13:59;6.88;;;2.92;;
35114;SDS011;21292;52.416;13.046;2023-02-01T09:16:27;7.95;;;2.80;;
35114;SDS011;21292;52.416;13.046;2023-02-01T09:18:56;4.03;;;2.30;;
35114;SDS011;21292;52.416;13.046;2023-02-01T09:21:44;6.28;;;2.53;;
35114;SDS011;21292;52.416;13.046;2023-02-01T09:24:12;10.25;;;3.20;;
35114;SDS011;21292;52.416;13.046;2023-02-01T09:26:41;7.03;;;3.03;;
35114;SDS011;21292;52.416;13.046;2023-02-01T09:29:13;8.18;;;2.42;;
35114;SDS011;21292;52.416;13.046;2023-02-01T09:31:41;6.93;;;2.50;;
35114;SDS011;21292;52.416;13.046;2023-02-01T09:34:28;7.18;;;2.50;;
35114;SDS011;21292;52.416;13.046;2023-02-01T09:36:56;5.95;;;2.47;;
35114;SDS011;21292;52.416;13.046;2023-02-01T09:39:25;8.02;;;2.88;;
35114;SDS011;21292;52.416;13.046;2023-02-01T09:41:59;8.48;;;2.33;;
35114;SDS011;21292;52.416;13.046;2023-02-01T09:44:42;8.95;;;2.55;;
35114;SDS011;21292;52.416;13.046;2023-02-01T09:47:17;8.73;;;2.35;;
35114;SDS011;21292;52.416;13.046;2023-02-01T09:49:48;5.50;;;1.65;;
35114;SDS011;21292;52.416;13.046;2023-02-01T09:52:20;5.20;;;1.40;;
35114;SDS011;21292;52.416;13.046;2023-02-01T09:54:54;2.97;;;1.27;;
35114;SDS011;21292;52.416;13.046;2023-02-01T09:57:28;5.50;;;1.45;;
35114;SDS011;21292;52.416;13.046;2023-02-01T10:00:12;5.22;;;1.70;;
35114;SDS011;21292;52.416;13.046;2023-02-01T10:02:44;4.65;;;1.83;;
35114;SDS011;21292;52.416;13.046;2023-02-01T10:07:49;6.07;;;1.40;;
35114;SDS011;21292;52.416;13.046;2023-02-01T10:10:24;4.63;;;2.00;;
35114;SDS011;21292;52.416;13.046;2023-02-01T10:16:04;6.43;;;1.80;;
35114;SDS011;21292;52.416;13.046;2023-02-01T10:18:48;6.07;;;1.63;;
35114;SDS011;21292;52.416;13.046;2023-02-01T10:21:26;5.40;;;1.17;;
35114;SDS011;21292;52.416;13.046;2023-02-01T10:24:09;4.78;;;1.73;;
35114;SDS011;21292;52.416;13.046;2023-02-01T10:26:44;1.75;;;1.15;;
35114;SDS011;21292;52.416;13.046;2023-02-01T10:29:14;4.65;;;1.35;;
35114;SDS011;21292;52.416;13.046;2023-02-01T10:31:46;2.30;;;1.20;;
35114;SDS011;21292;52.416;13.046;2023-02-01T10:34:15;3.45;;;1.38;;
35114;SDS011;21292;52.416;13.046;2023-02-01T10:36:50;6.63;;;1.60;;
35114;SDS011;21292;52.416;13.046;2023-02-01T10:39:22;8.30;;;1.58;;
35114;SDS011;21292;52.416;13.046;2023-02-01T10:41:51;5.90;;;2.20;;
35114;SDS011;21292;52.416;13.046;2023-02-01T10:44:20;3.58;;;1.65;;
35114;SDS011;21292;52.416;13.046;2023-02-01T10:46:53;3.30;;;1.80;;
35114;SDS011;21292;52.416;13.046;2023-02-01T10:49:29;6.28;;;1.75;;
35114;SDS011;21292;52.416;13.046;2023-02-01T10:52:02;9.70;;;2.78;;
35114;SDS011;21292;52.416;13.046;2023-02-01T10:54:35;7.20;;;2.28;;
35114;SDS011;21292;52.416;13.046;2023-02-01T10:57:07;7.55;;;2.60;;
35114;SDS011;21292;52.416;13.046;2023-02-01T10:59:36;11.20;;;2.55;;
35114;SDS011;21292;52.416;13.046;2023-02-01T11:04:59;7.95;;;2.30;;
35114;SDS011;21292;52.416;13.046;2023-02-01T11:07:30;8.48;;;2.22;;
35114;SDS011;21292;52.416;13.046;2023-02-01T11:09:59;9.30;;;2.70;;
35114;SDS011;21292;52.416;13.046;2023-02-01T11:12:29;11.75;;;2.63;;
35114;SDS011;21292;52.416;13.046;2023-02-01T11:14:59;6.75;;;2.08;;
35114;SDS011;21292;52.416;13.046;2023-02-01T11:17:34;7.07;;;2.00;;
35114;SDS011;21292;52.416;13.046;2023-02-01T11:20:05;6.75;;;2.25;;
35114;SDS011;21292;52.416;13.046;2023-02-01T11:22:38;11.23;;;2.80;;
35114;SDS011;21292;52.416;13.046;2023-02-01T11:25:14;8.75;;;2.42;;
35114;SDS011;21292;52.416;13.046;2023-02-01T11:27:44;8.38;;;2.80;;
35114;SDS011;21292;52.416;13.046;2023-02-01T11:30:22;9.50;;;2.17;;
35114;SDS011;21292;52.416;13.046;2023-02-01T11:33:00;11.18;;;2.67;;
35114;SDS011;21292;52.416;13.046;2023-02-01T11:35:32;10.20;;;1.98;;
35114;SDS011;21292;52.416;13.046;2023-02-01T11:38:11;11.10;;;2.13;;
35114;SDS011;21292;52.416;13.046;2023-02-01T11:40:43;8.82;;;2.05;;
35114;SDS011;21292;52.416;13.046;2023-02-01T11:43:22;9.25;;;2.00;;
35114;SDS011;21292;52.416;13.046;2023-02-01T11:45:56;7.35;;;2.10;;
35114;SDS011;21292;52.416;13.046;2023-02-01T11:48:28;14.20;;;2.58;;
35114;SDS011;21292;52.416;13.046;2023-02-01T11:51:04;10.57;;;2.63;;
35114;SDS011;21292;52.416;13.046;2023-02-01T11:53:51;10.07;;;2.65;;
35114;SDS011;21292;52.416;13.046;2023-02-01T11:56:30;13.27;;;2.75;;
35114;SDS011;21292;52.416;13.046;2023-02-01T12:02:11;14.85;;;3.38;;
35114;SDS011;21292;52.416;13.046;2023-02-01T12:07:45;15.13;;;2.65;;
35114;SDS011;21292;52.416;13.046;2023-02-01T12:10:22;10.10;;;2.15;;
35114;SDS011;21292;52.416;13.046;2023-02-01T12:13:02;11.85;;;2.70;;
35114;SDS011;21292;52.416;13.046;2023-02-01T12:15:45;19.73;;;3.42;;
35114;SDS011;21292;52.416;13.046;2023-02-01T12:21:21;11.68;;;2.38;;
35114;SDS011;21292;52.416;13.046;2023-02-01T12:23:59;12.80;;;2.47;;
35114;SDS011;21292;52.416;13.046;2023-02-01T12:26:40;14.43;;;2.40;;
35114;SDS011;21292;52.416;13.046;2023-02-01T12:32:06;6.97;;;2.08;;
35114;SDS011;21292;52.416;13.046;2023-02-01T12:34:52;9.20;;;3.28;;
35114;SDS011;21292;52.416;13.046;2023-02-01T12:37:34;8.95;;;1.88;;
35114;SDS011;21292;52.416;13.046;2023-02-01T12:40:16;9.82;;;2.33;;
35114;SDS011;21292;52.416;13.046;2023-02-01T12:42:53;6.90;;;2.60;;
35114;SDS011;21292;52.416;13.046;2023-02-01T12:45:30;5.53;;;2.10;;
35114;SDS011;21292;52.416;13.046;2023-02-01T12:48:03;11.70;;;2.15;;
35114;SDS011;21292;52.416;13.046;2023-02-01T12:50:50;9.93;;;2.28;;
35114;SDS011;21292;52.416;13.046;2023-02-01T12:53:24;10.82;;;2.20;;
35114;SDS011;21292;52.416;13.046;2023-02-01T12:55:55;12.88;;;2.08;;
35114;SDS011;21292;52.416;13.046;2023-02-01T12:58:24;5.32;;;1.60;;
35114;SDS011;21292;52.416;13.046;2023-02-01T13:03:29;8.25;;;2.33;;
35114;SDS011;21292;52.416;13.046;2023-02-01T13:06:02;10.70;;;2.10;;
35114;SDS011;21292;52.416;13.046;2023-02-01T13:08:38;4.90;;;1.90;;
35114;SDS011;21292;52.416;13.046;2023-02-01T13:11:11;7.30;;;2.20;;
35114;SDS011;21292;52.416;13.046;2023-02-01T13:13:45;11.80;;;2.90;;
35114;SDS011;21292;52.416;13.046;2023-02-01T13:16:17;10.07;;;2.90;;
35114;SDS011;21292;52.416;13.046;2023-02-01T13:18:51;8.45;;;2.28;;
35114;SDS011;21292;52.416;13.046;2023-02-01T13:21:24;10.63;;;3.20;;
35114;SDS011;21292;52.416;13.046;2023-02-01T13:23:55;17.70;;;3.43;;
35114;SDS011;21292;52.416;13.046;2023-02-01T13:26:24;18.27;;;3.05;;
35114;SDS011;21292;52.416;13.046;2023-02-01T13:28:53;14.02;;;3.13;;
35114;SDS011;21292;52.416;13.046;2023-02-01T13:31:31;20.17;;;3.60;;
35114;SDS011;21292;52.416;13.046;2023-02-01T13:34:25;15.73;;;3.78;;
35114;SDS011;21292;52.416;13.046;2023-02-01T13:37:05;12.73;;;2.90;;
35114;SDS011;21292;52.416;13.046;2023-02-01T13:42:42;15.45;;;3.30;;
35114;SDS011;21292;52.416;13.046;2023-02-01T13:45:15;14.13;;;3.03;;
35114;SDS011;21292;52.416;13.046;2023-02-01T13:47:45;9.88;;;2.47;;
35114;SDS011;21292;52.416;13.046;2023-02-01T13:50:19;8.35;;;3.47;;
35114;SDS011;21292;52.416;13.046;2023-02-01T13:52:53;15.05;;;2.85;;
35114;SDS011;21292;52.416;13.046;2023-02-01T13:55:33;17.40;;;3.13;;
35114;SDS011;21292;52.416;13.046;2023-02-01T13:58:06;16.83;;;3.55;;
35114;SDS011;21292;52.416;13.046;2023-02-01T14:00:41;12.50;;;3.28;;
35114;SDS011;21292;52.416;13.046;2023-02-01T14:03:12;11.45;;;3.13;;
35114;SDS011;21292;52.416;13.046;2023-02-01T14:08:46;19.85;;;3.88;;
35114;SDS011;21292;52.416;13.046;2023-02-01T14:11:43;14.30;;;3.28;;
35114;SDS011;21292;52.416;13.046;2023-02-01T14:23:28;22.27;;;5.32;;
35114;SDS011;21292;52.416;13.046;2023-02-01T14:26:14;11.43;;;3.10;;
35114;SDS011;21292;52.416;13.046;2023-02-01T14:28:47;16.63;;;3.05;;
35114;SDS011;21292;52.416;13.046;2023-02-01T14:31:39;13.10;;;4.10;;
35114;SDS011;21292;52.416;13.046;2023-02-01T14:34:16;16.33;;;3.22;;
35114;SDS011;21292;52.416;13.046;2023-02-01T14:36:48;11.65;;;3.05;;
35114;SDS011;21292;52.416;13.046;2023-02-01T14:39:24;8.18;;;2.38;;
35114;SDS011;21292;52.416;13.046;2023-02-01T14:41:59;9.60;;;2.83;;
35114;SDS011;21292;52.416;13.046;2023-02-01T14:44:32;11.37;;;2.77;;
35114;SDS011;21292;52.416;13.046;2023-02-01T14:47:05;4.07;;;1.45;;
35114;SDS011;21292;52.416;13.046;2023-02-01T14:49:42;10.27;;;2.55;;
35114;SDS011;21292;52.416;13.046;2023-02-01T14:52:17;5.22;;;2.17;;
35114;SDS011;21292;52.416;13.046;2023-02-01T14:54:49;6.00;;;1.80;;
35114;SDS011;21292;52.416;13.046;2023-02-01T14:57:24;9.38;;;2.55;;
35114;SDS011;21292;52.416;13.046;2023-02-01T15:00:00;8.85;;;2.17;;
35114;SDS011;21292;52.416;13.046;2023-02-01T15:02:35;15.73;;;2.30;;
35114;SDS011;21292;52.416;13.046;2023-02-01T15:05:16;7.72;;;2.55;;
35114;SDS011;21292;52.416;13.046;2023-02-01T15:07:51;10.45;;;3.17;;
35114;SDS011;21292;52.416;13.046;2023-02-01T15:10:20;12.75;;;3.55;;
35114;SDS011;21292;52.416;13.046;2023-02-01T15:12:50;11.35;;;2.78;;
35114;SDS011;21292;52.416;13.046;2023-02-01T15:15:21;6.40;;;2.95;;
35114;SDS011;21292;52.416;13.046;2023-02-01T15:17:53;14.52;;;3.58;;
35114;SDS011;21292;52.416;13.046;2023-02-01T15:20:23;12.73;;;2.50;;
35114;SDS011;21292;52.416;13.046;2023-02-01T15:22:55;9.52;;;2.67;;
35114;SDS011;21292;52.416;13.046;2023-02-01T15:25:26;13.18;;;4.53;;
35114;SDS011;21292;52.416;13.046;2023-02-01T15:27:56;11.95;;;3.70;;
35114;SDS011;21292;52.416;13.046;2023-02-01T15:30:27;11.05;;;4.47;;
35114;SDS011;21292;52.416;13.046;2023-02-01T15:33:04;10.88;;;2.80;;
35114;SDS011;21292;52.416;13.046;2023-02-01T15:35:35;10.68;;;3.05;;
35114;SDS011;21292;52.416;13.046;2023-02-01T15:38:20;13.38;;;3.60;;
35114;SDS011;21292;52.416;13.046;2023-02-01T15:41:11;5.82;;;2.92;;